Time;durP1;ratioP1;P1;durP2;ratioP2;P2;SDS_P1;SDS_P2;PMS_P1;PMS_P2;Temp;Humidity;BMP_temperature;BMP_pressure;BME280_temperature;BME280_humidity;BME280_pressure;Samples;Min_cycle;Max_cycle;Signal;HPM_P1;HPM_P2
2023/01/30 00:00:18;;;;;;;19.90;15.15;;;6.00;99.90;;;;;;6184471;23;20257;-89
2023/01/30 00:02:44;;;;;;;18.70;14.27;;;5.80;99.90;;;;;;6185035;23;20016;-89
2023/01/30 00:05:09;;;;;;;18.52;13.50;;;5.80;99.90;;;;;;6211772;23;20019;-89
2023/01/30 00:07:35;;;;;;;20.75;13.73;;;6.10;99.90;;;;;;6211855;23;19996;-90
2023/01/30 00:10:01;;;;;;;18.20;13.20;;;5.90;99.90;;;;;;6184988;23;20004;-88
2023/01/30 00:12:26;;;;;;;19.48;13.82;;;5.90;99.90;;;;;;6185924;23;20004;-90
2023/01/30 00:14:52;;;;;;;18.10;12.95;;;5.80;99.90;;;;;;6211595;23;20027;-90
2023/01/30 00:17:17;;;;;;;21.13;13.27;;;5.90;99.90;;;;;;6211199;23;19997;-89
2023/01/30 00:19:43;;;;;;;17.15;12.80;;;5.90;99.90;;;;;;6185129;23;20005;-91
2023/01/30 00:22:09;;;;;;;18.30;13.00;;;6.00;99.90;;;;;;6211582;23;20476;-90
2023/01/30 00:24:34;;;;;;;18.65;13.18;;;5.80;99.90;;;;;;6184933;23;20047;-90
2023/01/30 00:27:00;;;;;;;18.85;13.15;;;5.90;99.90;;;;;;6211433;23;20004;-89
2023/01/30 00:29:26;;;;;;;20.98;13.63;;;5.80;99.90;;;;;;6212693;23;20008;-90
2023/01/30 00:31:51;;;;;;;19.90;13.05;;;5.80;99.90;;;;;;6211218;23;20047;-90
2023/01/30 00:34:17;;;;;;;18.00;13.32;;;5.80;99.90;;;;;;6185053;23;20015;-89
2023/01/30 00:36:43;;;;;;;17.60;12.35;;;5.90;99.90;;;;;;6184887;23;20009;-89
2023/01/30 00:39:08;;;;;;;18.42;13.02;;;5.90;99.90;;;;;;6184185;23;20088;-89
2023/01/30 00:47:05;;;;;;;20.45;13.77;;;5.80;99.90;;;;;;6211531;23;20464;-89
2023/01/30 00:49:31;;;;;;;18.85;13.38;;;5.70;99.90;;;;;;6184621;23;20009;-89
2023/01/30 00:51:57;;;;;;;22.55;13.20;;;5.70;99.90;;;;;;6212381;23;20059;-89
2023/01/30 00:54:23;;;;;;;19.23;12.93;;;5.80;99.90;;;;;;6210734;23;20004;-89
2023/01/30 00:56:49;;;;;;;20.27;13.20;;;5.70;99.90;;;;;;6211155;23;20085;-89
2023/01/30 00:59:14;;;;;;;18.73;13.35;;;5.80;99.90;;;;;;6185071;23;20008;-90
2023/01/30 01:01:40;;;;;;;18.25;13.35;;;5.80;99.90;;;;;;6211371;23;20003;-90
2023/01/30 01:04:07;;;;;;;16.10;12.77;;;5.70;99.90;;;;;;6211054;23;20016;-89
2023/01/30 01:06:33;;;;;;;20.33;13.40;;;5.70;99.90;;;;;;6184634;23;20001;-90
2023/01/30 01:08:59;;;;;;;16.88;12.90;;;5.60;99.90;;;;;;6212080;23;20015;-89
2023/01/30 01:11:24;;;;;;;16.35;12.45;;;5.60;99.90;;;;;;6184203;23;20005;-89
2023/01/30 01:13:59;;;;;;;19.58;13.57;;;5.50;99.90;;;;;;6184819;23;20088;-89
2023/01/30 01:16:26;;;;;;;18.98;12.88;;;5.60;99.90;;;;;;6211262;23;20059;-89
2023/01/30 01:18:52;;;;;;;20.10;13.38;;;5.70;99.90;;;;;;6211189;23;20004;-89
2023/01/30 01:21:19;;;;;;;18.50;12.55;;;5.60;99.90;;;;;;6183962;23;20000;-90
2023/01/30 01:23:52;;;;;;;16.17;12.75;;;5.70;99.90;;;;;;6184438;23;20393;-89
2023/01/30 01:26:18;;;;;;;21.63;13.65;;;5.60;99.90;;;;;;6183799;23;20007;-89
2023/01/30 01:28:44;;;;;;;17.00;12.63;;;5.60;99.90;;;;;;6211137;23;20009;-89
2023/01/30 01:31:11;;;;;;;18.73;12.65;;;5.70;99.90;;;;;;6210981;23;20011;-89
2023/01/30 01:33:37;;;;;;;16.27;12.48;;;5.70;99.90;;;;;;6184343;23;20013;-89
2023/01/30 01:36:04;;;;;;;19.35;12.50;;;5.60;99.90;;;;;;6185124;23;20476;-89
2023/01/30 01:38:29;;;;;;;17.67;12.70;;;5.60;99.90;;;;;;6212181;23;20011;-89
2023/01/30 01:41:01;;;;;;;19.38;13.75;;;5.50;99.90;;;;;;6211052;23;20000;-90
2023/01/30 01:43:37;;;;;;;15.43;12.40;;;5.70;99.90;;;;;;6210712;23;20311;-91
2023/01/30 01:46:17;;;;;;;17.98;12.25;;;5.70;99.90;;;;;;6210962;23;20031;-89
2023/01/30 01:48:52;;;;;;;18.05;12.88;;;5.60;99.90;;;;;;6183508;23;20000;-91
2023/01/30 01:51:31;;;;;;;21.08;12.90;;;5.70;99.90;;;;;;6184369;23;20008;-89
2023/01/30 01:54:20;;;;;;;17.48;11.93;;;5.60;99.90;;;;;;6189829;23;20008;-89
2023/01/30 01:56:47;;;;;;;16.95;12.10;;;5.90;99.90;;;;;;6190453;23;20009;-89
2023/01/30 01:59:32;;;;;;;15.93;11.52;;;6.00;99.90;;;;;;6189315;23;20416;-90
2023/01/30 02:02:02;;;;;;;18.67;11.57;;;5.70;99.90;;;;;;6184021;23;20005;-89
2023/01/30 02:07:18;;;;;;;15.73;11.73;;;5.80;99.90;;;;;;6210961;23;20011;-89
2023/01/30 02:09:44;;;;;;;18.05;12.40;;;5.70;99.90;;;;;;6183603;23;20510;-89
2023/01/30 02:12:11;;;;;;;17.83;12.38;;;5.70;99.90;;;;;;6210644;23;20084;-90
2023/01/30 02:14:38;;;;;;;16.00;12.77;;;5.70;99.90;;;;;;6210688;23;20007;-88
2023/01/30 02:17:04;;;;;;;19.30;12.82;;;5.60;99.90;;;;;;6210852;23;20097;-88
2023/01/30 02:19:33;;;;;;;20.13;12.40;;;5.60;99.90;;;;;;6183991;23;20086;-89
2023/01/30 02:22:08;;;;;;;21.25;14.30;;;5.70;99.90;;;;;;6183964;23;20008;-87
2023/01/30 02:25:01;;;;;;;20.38;12.93;;;5.70;99.90;;;;;;6184893;23;20449;-89
2023/01/30 02:27:33;;;;;;;23.08;14.32;;;5.60;99.90;;;;;;6210496;23;20028;-88
2023/01/30 02:30:05;;;;;;;20.02;12.65;;;5.50;99.90;;;;;;6210358;23;20055;-90
2023/01/30 02:32:33;;;;;;;17.52;12.80;;;5.60;99.90;;;;;;6182930;23;20004;-87
2023/01/30 02:35:06;;;;;;;17.45;13.00;;;5.70;99.90;;;;;;6210556;23;20004;-88
2023/01/30 02:38:10;;;;;;;20.25;13.82;;;5.70;99.90;;;;;;6211597;23;19996;-89
2023/01/30 02:41:05;;;;;;;17.92;13.75;;;5.60;99.90;;;;;;6155118;23;20461;-89
2023/01/30 02:44:02;;;;;;;21.17;13.90;;;5.70;99.90;;;;;;6121759;23;20008;-88
2023/01/30 02:46:55;;;;;;;17.55;13.57;;;5.60;99.90;;;;;;6209827;23;20011;-88
2023/01/30 02:49:36;;;;;;;19.45;13.38;;;5.70;99.90;;;;;;6183874;23;20441;-89
2023/01/30 02:52:04;;;;;;;21.08;14.23;;;5.70;99.90;;;;;;6184982;23;20066;-90
2023/01/30 02:54:31;;;;;;;20.40;13.85;;;5.60;99.90;;;;;;6210393;23;20091;-87
2023/01/30 02:56:58;;;;;;;20.38;13.70;;;5.60;99.90;;;;;;6183758;23;20328;-88
2023/01/30 02:59:32;;;;;;;18.85;13.40;;;5.70;99.90;;;;;;6210221;23;20005;-88
2023/01/30 03:02:07;;;;;;;19.90;14.18;;;5.80;99.90;;;;;;6209898;23;20008;-89
2023/01/30 03:05:01;;;;;;;19.77;13.02;;;5.60;99.90;;;;;;6210900;23;20315;-89
2023/01/30 03:07:45;;;;;;;20.38;13.20;;;5.70;99.90;;;;;;6183447;23;20011;-88
2023/01/30 03:10:41;;;;;;;21.33;14.07;;;5.70;99.90;;;;;;6183450;23;20396;-89
2023/01/30 03:13:23;;;;;;;19.23;13.85;;;5.80;99.90;;;;;;6211184;23;20012;-89
2023/01/30 03:15:52;;;;;;;19.52;13.73;;;5.80;99.90;;;;;;6210206;23;20468;-88
2023/01/30 03:18:19;;;;;;;21.02;13.95;;;5.70;99.90;;;;;;6209450;23;20011;-88
2023/01/30 03:20:45;;;;;;;20.90;14.15;;;5.80;99.90;;;;;;6183175;23;20457;-89
2023/01/30 03:23:10;;;;;;;19.42;12.95;;;5.70;99.90;;;;;;6210011;23;20004;-88
2023/01/30 03:25:38;;;;;;;23.65;14.65;;;5.80;99.90;;;;;;6211111;23;20079;-87
2023/01/30 03:28:05;;;;;;;20.07;14.03;;;5.60;99.90;;;;;;6179650;23;20334;-87
2023/01/30 03:30:31;;;;;;;20.45;14.07;;;5.60;99.90;;;;;;6178287;23;20307;-88
2023/01/30 03:32:57;;;;;;;18.80;13.43;;;5.60;99.90;;;;;;6179739;23;20419;-88
2023/01/30 03:35:23;;;;;;;20.38;13.05;;;5.60;99.90;;;;;;6178571;23;20370;-88
2023/01/30 03:37:49;;;;;;;21.02;13.82;;;5.70;99.90;;;;;;6180003;23;20005;-88
2023/01/30 03:40:15;;;;;;;20.23;14.40;;;5.60;99.90;;;;;;6180046;23;20007;-87
2023/01/30 03:42:41;;;;;;;20.95;14.18;;;5.50;99.90;;;;;;6178264;23;20040;-88
2023/01/30 03:45:08;;;;;;;19.15;13.00;;;5.60;99.90;;;;;;6183194;23;20005;-89
2023/01/30 03:47:34;;;;;;;17.30;13.13;;;5.60;99.90;;;;;;6182132;23;20005;-88
2023/01/30 03:49:59;;;;;;;18.13;13.30;;;5.70;99.90;;;;;;6182097;23;20590;-89
2023/01/30 03:52:25;;;;;;;16.70;12.55;;;5.70;99.90;;;;;;6180349;23;20438;-89
2023/01/30 03:54:51;;;;;;;19.63;13.57;;;5.70;99.90;;;;;;6179657;23;20101;-88
2023/01/30 03:57:16;;;;;;;20.48;13.43;;;5.80;99.90;;;;;;6181860;23;20494;-89
2023/01/30 03:59:42;;;;;;;22.15;13.20;;;5.70;99.90;;;;;;6182029;23;20430;-88
2023/01/30 04:02:07;;;;;;;18.95;13.68;;;5.70;99.90;;;;;;6181247;23;20008;-88
2023/01/30 04:04:34;;;;;;;18.38;13.40;;;5.70;99.90;;;;;;6179467;23;20013;-88
2023/01/30 04:06:59;;;;;;;19.58;13.55;;;5.70;99.90;;;;;;6181269;23;20005;-87
2023/01/30 04:09:25;;;;;;;17.52;12.68;;;5.70;99.90;;;;;;6181639;23;20001;-88
2023/01/30 04:11:51;;;;;;;19.65;13.45;;;5.70;99.90;;;;;;6181720;23;20068;-89
2023/01/30 04:14:16;;;;;;;18.85;12.68;;;5.70;99.90;;;;;;6181456;23;20055;-87
2023/01/30 04:16:42;;;;;;;17.80;12.75;;;5.80;99.90;;;;;;6181714;23;20064;-88
2023/01/30 04:19:08;;;;;;;21.63;13.30;;;5.80;99.90;;;;;;6182687;23;20009;-87
2023/01/30 04:21:34;;;;;;;16.30;11.80;;;5.70;99.90;;;;;;6179987;23;20009;-88
2023/01/30 04:23:59;;;;;;;21.33;12.75;;;5.80;99.90;;;;;;6181372;23;20019;-88
2023/01/30 04:26:25;;;;;;;17.83;12.18;;;5.80;99.90;;;;;;6183354;23;20021;-89
2023/01/30 04:28:51;;;;;;;18.63;12.57;;;5.80;99.90;;;;;;6211451;23;20009;-88
2023/01/30 04:31:16;;;;;;;17.95;12.50;;;5.80;99.90;;;;;;6211801;23;20035;-90
2023/01/30 04:33:42;;;;;;;16.70;11.57;;;5.90;99.90;;;;;;6212719;23;20001;-87
2023/01/30 04:36:09;;;;;;;14.95;11.50;;;5.90;99.90;;;;;;6185909;23;20001;-88
2023/01/30 04:38:35;;;;;;;16.88;12.25;;;5.90;99.90;;;;;;6184208;23;20005;-88
2023/01/30 04:41:01;;;;;;;20.30;13.27;;;5.80;99.90;;;;;;6184660;23;20107;-88
2023/01/30 04:43:27;;;;;;;18.55;12.93;;;5.80;99.90;;;;;;6211148;23;20020;-87
2023/01/30 04:45:54;;;;;;;17.88;12.60;;;5.70;99.90;;;;;;6211454;23;20080;-86
2023/01/30 04:48:21;;;;;;;19.85;13.32;;;5.80;99.90;;;;;;6210996;23;20100;-87
2023/01/30 04:50:49;;;;;;;20.20;13.27;;;5.80;99.90;;;;;;6211439;23;20073;-90
2023/01/30 04:53:15;;;;;;;19.00;13.52;;;5.70;99.90;;;;;;6210845;23;20005;-88
2023/01/30 04:55:41;;;;;;;18.90;13.18;;;5.70;99.90;;;;;;6212282;23;20058;-90
2023/01/30 04:58:07;;;;;;;16.58;13.30;;;5.80;99.90;;;;;;6211201;23;20051;-90
2023/01/30 05:00:33;;;;;;;18.55;13.48;;;5.80;99.90;;;;;;6211757;23;20008;-89
2023/01/30 05:02:58;;;;;;;16.02;12.27;;;5.80;99.90;;;;;;6211126;23;20071;-89
2023/01/30 05:05:25;;;;;;;17.23;12.38;;;5.80;99.90;;;;;;6211177;23;20084;-86
2023/01/30 05:07:51;;;;;;;19.15;13.10;;;5.90;99.90;;;;;;6210841;23;20023;-86
2023/01/30 05:10:17;;;;;;;17.02;12.88;;;5.90;99.90;;;;;;6210165;23;20434;-90
2023/01/30 05:12:43;;;;;;;17.23;11.65;;;5.80;99.90;;;;;;6185143;23;20012;-90
2023/01/30 05:15:10;;;;;;;20.00;12.48;;;5.90;99.90;;;;;;6211513;23;20004;-90
2023/01/30 05:17:36;;;;;;;16.60;11.93;;;5.90;99.90;;;;;;6184819;23;20015;-91
2023/01/30 05:20:02;;;;;;;17.45;12.60;;;5.80;99.90;;;;;;6211576;23;20485;-88
2023/01/30 05:22:28;;;;;;;17.52;12.77;;;5.80;99.90;;;;;;6177636;23;20345;-90
2023/01/30 05:24:54;;;;;;;16.70;12.18;;;5.90;99.90;;;;;;6207850;23;20008;-89
2023/01/30 05:27:20;;;;;;;15.80;12.00;;;5.90;99.90;;;;;;6177824;23;20016;-90
2023/01/30 05:29:45;;;;;;;15.90;11.40;;;5.90;99.90;;;;;;6180870;23;20016;-89
2023/01/30 05:32:16;;;;;;;16.75;12.05;;;6.00;99.90;;;;;;6180776;23;20127;-89
2023/01/30 05:34:41;;;;;;;16.98;11.75;;;5.90;99.90;;;;;;6181564;23;20461;-89
2023/01/30 05:37:08;;;;;;;15.48;11.77;;;5.90;99.90;;;;;;6178117;23;20017;-89
2023/01/30 05:39:33;;;;;;;14.05;11.65;;;5.90;99.90;;;;;;6178308;23;20027;-91
2023/01/30 05:41:59;;;;;;;16.38;11.60;;;5.90;99.90;;;;;;6179007;23;20005;-90
2023/01/30 05:44:25;;;;;;;13.73;10.82;;;5.90;99.90;;;;;;6181639;23;20009;-90
2023/01/30 05:46:50;;;;;;;14.13;10.98;;;6.00;99.90;;;;;;6179953;23;20079;-89
2023/01/30 05:49:16;;;;;;;16.63;10.43;;;6.00;99.90;;;;;;6181163;23;20005;-91
2023/01/30 05:51:45;;;;;;;15.30;10.95;;;6.00;99.90;;;;;;6181456;23;20004;-91
2023/01/30 05:54:11;;;;;;;12.27;9.98;;;6.00;99.90;;;;;;6181527;23;20000;-89
2023/01/30 05:56:37;;;;;;;17.80;9.85;;;6.10;99.90;;;;;;6181189;23;20008;-89
2023/01/30 05:59:02;;;;;;;15.10;9.93;;;6.10;99.90;;;;;;6181188;23;20401;-91
2023/01/30 06:01:29;;;;;;;12.38;8.93;;;6.20;99.90;;;;;;6180295;23;20052;-91
2023/01/30 06:03:56;;;;;;;14.73;9.65;;;6.30;99.90;;;;;;6182013;23;20016;-93
2023/01/30 06:06:23;;;;;;;11.07;9.23;;;6.40;99.90;;;;;;6182073;23;20008;-90
2023/01/30 06:08:52;;;;;;;10.23;8.60;;;6.40;99.90;;;;;;6180647;23;20080;-90
2023/01/30 06:11:18;;;;;;;11.40;9.32;;;6.40;99.90;;;;;;6181554;23;20051;-87
2023/01/30 06:13:44;;;;;;;11.73;8.95;;;6.50;99.90;;;;;;6182233;23;20012;-91
2023/01/30 06:16:12;;;;;;;11.65;9.02;;;6.50;99.90;;;;;;6181213;23;20005;-88
2023/01/30 06:18:38;;;;;;;10.45;8.57;;;6.60;99.90;;;;;;6182185;23;20281;-93
2023/01/30 06:21:05;;;;;;;9.93;8.07;;;6.60;99.90;;;;;;6179767;23;20028;-92
2023/01/30 06:23:31;;;;;;;11.38;8.75;;;6.60;99.90;;;;;;6180932;23;20151;-93
2023/01/30 06:25:57;;;;;;;10.82;8.98;;;6.90;99.90;;;;;;6181201;23;20076;-94
2023/01/30 06:28:24;;;;;;;10.70;8.93;;;6.60;99.90;;;;;;6208462;23;20012;-93
2023/01/30 06:30:50;;;;;;;12.15;8.45;;;6.70;99.90;;;;;;6188486;23;20001;-87
2023/01/30 06:33:16;;;;;;;9.75;8.18;;;6.60;99.90;;;;;;6213074;23;20024;-93
2023/01/30 06:35:43;;;;;;;10.77;7.90;;;6.70;99.90;;;;;;6211733;23;20055;-93
2023/01/30 06:38:10;;;;;;;11.35;8.60;;;6.60;99.90;;;;;;6211247;23;20008;-90
2023/01/30 06:40:36;;;;;;;11.13;8.43;;;6.60;99.90;;;;;;6211253;23;20000;-94
2023/01/30 06:43:02;;;;;;;12.07;8.40;;;6.60;99.90;;;;;;6211401;23;20015;-93
2023/01/30 06:45:28;;;;;;;11.18;8.45;;;6.60;99.90;;;;;;6185368;23;20422;-91
2023/01/30 06:47:55;;;;;;;10.43;8.32;;;6.70;99.90;;;;;;6189634;23;20031;-91
2023/01/30 06:50:23;;;;;;;10.23;8.45;;;6.70;99.90;;;;;;6213130;23;20005;-88
2023/01/30 06:52:57;;;;;;;10.00;8.65;;;6.70;99.90;;;;;;6208224;23;20005;-92
2023/01/30 06:55:50;;;;;;;9.75;8.65;;;6.80;99.90;;;;;;6236411;23;19985;-93
2023/01/30 06:58:15;;;;;;;10.52;8.48;;;6.70;99.90;;;;;;6230302;23;20004;-92
2023/01/30 07:00:41;;;;;;;11.05;8.52;;;6.70;99.90;;;;;;6216042;23;20004;-94
2023/01/30 07:03:12;;;;;;;11.38;8.30;;;6.70;99.90;;;;;;6214471;23;20079;-93
2023/01/30 07:05:40;;;;;;;10.02;8.07;;;6.70;99.90;;;;;;6213252;23;20489;-92
2023/01/30 07:08:06;;;;;;;13.23;9.65;;;6.80;99.90;;;;;;6223336;23;20004;-89
2023/01/30 07:10:32;;;;;;;12.40;8.85;;;6.80;99.90;;;;;;6237584;23;20016;-91
2023/01/30 07:12:58;;;;;;;12.48;9.57;;;6.70;99.90;;;;;;6230969;23;19997;-93
2023/01/30 07:15:24;;;;;;;11.55;9.15;;;6.60;99.90;;;;;;6226274;23;20384;-94
2023/01/30 07:17:50;;;;;;;13.82;9.32;;;6.70;99.90;;;;;;6201873;23;20032;-92
2023/01/30 07:20:16;;;;;;;11.55;9.40;;;6.70;99.90;;;;;;6221557;23;20001;-93
2023/01/30 07:22:42;;;;;;;11.77;10.02;;;6.70;99.90;;;;;;6194228;23;20028;-95
2023/01/30 07:25:08;;;;;;;12.02;10.00;;;6.80;99.90;;;;;;6197008;23;20008;-91
2023/01/30 07:27:33;;;;;;;12.05;10.18;;;6.70;99.90;;;;;;6212295;23;20040;-91
2023/01/30 07:29:59;;;;;;;14.32;10.77;;;6.60;99.90;;;;;;6212987;23;20001;-91
2023/01/30 07:32:25;;;;;;;12.55;9.90;;;6.70;99.90;;;;;;6212350;23;20001;-92
2023/01/30 07:34:51;;;;;;;14.50;11.05;;;6.70;99.90;;;;;;6188837;23;20084;-93
2023/01/30 07:37:17;;;;;;;15.23;11.35;;;6.70;99.90;;;;;;6213759;23;20001;-89
2023/01/30 07:39:42;;;;;;;15.43;11.15;;;6.70;99.90;;;;;;6213937;23;20055;-92
2023/01/30 07:42:08;;;;;;;14.20;11.43;;;6.80;99.90;;;;;;6219015;23;20005;-95
2023/01/30 07:44:34;;;;;;;16.52;10.88;;;6.80;99.90;;;;;;6220692;23;20035;-93
2023/01/30 07:47:00;;;;;;;12.20;9.98;;;6.80;99.90;;;;;;6218587;23;20099;-93
2023/01/30 07:49:27;;;;;;;13.05;9.82;;;6.90;99.90;;;;;;6220409;23;20016;-93
2023/01/30 07:51:53;;;;;;;14.82;11.63;;;6.80;99.90;;;;;;6229891;23;20032;-88
2023/01/30 07:54:19;;;;;;;13.35;10.82;;;7.00;99.90;;;;;;6234285;23;20004;-93
2023/01/30 07:56:45;;;;;;;13.15;10.55;;;7.20;99.90;;;;;;6187587;23;20000;-91
2023/01/30 07:59:11;;;;;;;17.17;10.90;;;6.80;99.90;;;;;;6186126;23;20075;-89
2023/01/30 08:01:36;;;;;;;14.48;11.05;;;6.90;99.90;;;;;;6212720;23;20000;-92
2023/01/30 08:04:02;;;;;;;14.50;11.23;;;6.90;99.90;;;;;;6212971;23;20009;-91
2023/01/30 08:06:28;;;;;;;14.60;10.82;;;6.90;99.90;;;;;;6186526;23;20004;-92
2023/01/30 08:08:54;;;;;;;14.30;10.55;;;7.00;99.90;;;;;;6214003;23;20005;-87
2023/01/30 08:11:19;;;;;;;14.88;11.05;;;6.90;99.90;;;;;;6213637;23;20000;-94
2023/01/30 08:13:46;;;;;;;14.48;10.98;;;6.90;99.90;;;;;;6212333;23;20004;-92
2023/01/30 08:16:12;;;;;;;15.82;11.30;;;7.00;99.90;;;;;;6215526;23;20021;-92
2023/01/30 08:18:37;;;;;;;14.68;11.02;;;6.90;99.90;;;;;;6187015;23;20012;-91
2023/01/30 08:21:05;;;;;;;12.75;10.50;;;7.00;99.90;;;;;;6212004;23;20056;-92
2023/01/30 08:23:32;;;;;;;13.98;11.20;;;7.00;99.90;;;;;;6212113;23;20008;-91
2023/01/30 08:26:00;;;;;;;14.18;10.68;;;7.00;99.90;;;;;;6213397;23;20004;-94
2023/01/30 08:28:27;;;;;;;12.40;10.25;;;7.00;99.90;;;;;;6214216;23;20005;-93
2023/01/30 08:30:56;;;;;;;14.27;10.77;;;7.00;99.90;;;;;;6218273;23;20009;-93
2023/01/30 08:33:23;;;;;;;15.50;11.30;;;7.00;99.90;;;;;;6226660;23;20075;-96
2023/01/30 08:35:49;;;;;;;14.10;10.85;;;7.10;99.90;;;;;;6205103;23;20004;-94
2023/01/30 08:38:15;;;;;;;12.52;10.05;;;7.20;99.90;;;;;;6215293;23;20233;-93
2023/01/30 08:40:41;;;;;;;14.68;10.60;;;7.20;99.90;;;;;;6212187;23;20050;-92
2023/01/30 08:43:07;;;;;;;12.93;10.32;;;7.20;99.90;;;;;;6211993;23;20021;-91
2023/01/30 08:45:33;;;;;;;14.95;10.55;;;7.30;99.90;;;;;;6212571;23;20001;-90
2023/01/30 08:48:00;;;;;;;13.70;10.57;;;7.30;99.90;;;;;;6212270;23;19997;-90
2023/01/30 08:50:26;;;;;;;13.52;10.88;;;7.30;99.90;;;;;;6212763;23;20429;-86
2023/01/30 08:52:52;;;;;;;13.57;11.10;;;7.20;99.90;;;;;;6186603;23;20047;-91
2023/01/30 08:55:18;;;;;;;14.88;11.02;;;7.30;99.90;;;;;;6211558;23;20430;-92
2023/01/30 08:57:44;;;;;;;14.10;10.85;;;7.20;99.90;;;;;;6211589;23;20072;-93
2023/01/30 09:00:10;;;;;;;17.55;12.13;;;7.40;99.90;;;;;;6211970;23;20005;-91
2023/01/30 09:02:36;;;;;;;16.42;11.77;;;7.30;99.90;;;;;;6185224;23;20004;-91
2023/01/30 09:05:02;;;;;;;13.48;10.50;;;7.40;99.90;;;;;;6212737;23;20012;-94
2023/01/30 09:07:28;;;;;;;13.15;10.23;;;7.40;99.90;;;;;;6212426;23;20001;-91
2023/01/30 09:09:54;;;;;;;13.93;10.68;;;7.40;99.90;;;;;;6212273;23;20005;-92
2023/01/30 09:12:20;;;;;;;12.73;10.52;;;7.50;99.90;;;;;;6211684;23;20075;-92
2023/01/30 09:14:46;;;;;;;12.02;10.13;;;7.50;99.90;;;;;;6211522;23;20365;-90
2023/01/30 09:17:12;;;;;;;14.77;11.02;;;7.70;99.90;;;;;;6212320;23;20003;-91
2023/01/30 09:19:38;;;;;;;14.10;10.32;;;7.60;99.90;;;;;;6184421;23;20442;-91
2023/01/30 09:22:06;;;;;;;14.80;10.65;;;7.60;99.90;;;;;;6184803;23;20000;-92
2023/01/30 09:24:32;;;;;;;12.47;9.50;;;7.70;99.90;;;;;;6184412;23;20012;-92
2023/01/30 09:26:58;;;;;;;12.80;10.18;;;7.80;99.90;;;;;;6211948;23;20012;-92
2023/01/30 09:29:25;;;;;;;13.27;10.57;;;7.80;99.90;;;;;;6212062;23;20004;-90
2023/01/30 09:31:51;;;;;;;12.52;9.90;;;7.80;99.90;;;;;;6211838;23;20035;-91
2023/01/30 09:34:17;;;;;;;14.30;10.65;;;7.80;99.90;;;;;;6210161;23;20430;-92
2023/01/30 09:36:43;;;;;;;14.25;10.27;;;7.90;99.90;;;;;;6211296;23;20001;-90
2023/01/30 09:39:09;;;;;;;14.70;11.27;;;7.90;99.90;;;;;;6184830;23;20028;-90
2023/01/30 09:41:46;;;;;;;14.40;9.60;;;8.00;99.90;;;;;;6210777;23;20005;-90
2023/01/30 09:44:29;;;;;;;12.37;10.07;;;8.00;99.90;;;;;;6184378;23;20012;-90
2023/01/30 09:47:18;;;;;;;15.20;10.07;;;8.10;99.90;;;;;;6189134;23;20004;-91
2023/01/30 09:49:59;;;;;;;12.57;9.60;;;8.10;99.90;;;;;;6212765;23;20000;-91
2023/01/30 09:52:31;;;;;;;14.23;10.45;;;8.20;99.90;;;;;;6213228;23;20410;-90
2023/01/30 09:55:18;;;;;;;13.63;10.07;;;8.20;99.90;;;;;;6185694;23;20429;-90
2023/01/30 09:57:47;;;;;;;15.07;10.60;;;8.30;99.90;;;;;;6184113;23;20004;-91
2023/01/30 10:00:41;;;;;;;15.07;10.30;;;8.40;99.90;;;;;;6184145;23;20005;-90
2023/01/30 10:03:18;;;;;;;13.32;9.27;;;8.30;99.90;;;;;;6184178;23;20009;-91
2023/01/30 10:05:52;;;;;;;12.70;8.70;;;8.40;99.90;;;;;;6211204;23;20000;-90
2023/01/30 10:08:23;;;;;;;13.40;8.48;;;8.40;99.90;;;;;;6184515;23;20001;-93
2023/01/30 10:11:37;;;;;;;;;;;;;;;;;;;;;
2023/01/30 10:14:40;;;;;;;12.35;8.07;;;8.40;99.90;;;;;;6177246;23;20092;-93
2023/01/30 10:17:38;;;;;;;10.73;8.27;;;8.40;99.90;;;;;;6184767;23;20059;-92
2023/01/30 10:20:10;;;;;;;10.38;8.55;;;8.40;99.90;;;;;;6186539;23;20004;-91
2023/01/30 10:23:10;;;;;;;11.13;8.20;;;8.40;99.90;;;;;;6211899;23;20069;-90
2023/01/30 10:25:58;;;;;;;11.75;8.93;;;8.40;99.90;;;;;;6218083;23;20008;-93
2023/01/30 10:28:32;;;;;;;10.38;7.93;;;8.40;99.90;;;;;;6174488;23;19997;-93
2023/01/30 10:31:13;;;;;;;10.43;7.82;;;8.30;99.90;;;;;;6208082;23;20069;-95
2023/01/30 10:34:03;;;;;;;12.43;7.50;;;8.40;99.90;;;;;;6189358;23;19997;-94
2023/01/30 10:37:00;;;;;;;10.35;8.43;;;8.50;99.90;;;;;;6190160;23;20410;-93
2023/01/30 10:39:38;;;;;;;10.48;8.63;;;8.50;99.90;;;;;;6173045;23;20005;-94
2023/01/30 10:42:07;;;;;;;11.13;8.07;;;8.50;99.90;;;;;;6192429;23;20001;-92
2023/01/30 10:44:33;;;;;;;10.10;8.07;;;8.50;99.90;;;;;;6193199;23;20519;-91
2023/01/30 10:47:31;;;;;;;10.27;7.55;;;8.60;99.90;;;;;;6184562;23;20056;-93
2023/01/30 10:50:22;;;;;;;10.77;8.52;;;8.60;99.90;;;;;;6187124;23;20005;-94
2023/01/30 10:53:13;;;;;;;10.80;8.00;;;8.60;99.90;;;;;;6182999;23;19997;-94
2023/01/30 10:55:51;;;;;;;10.93;7.75;;;8.60;99.90;;;;;;6182299;23;20008;-94
2023/01/30 10:58:49;;;;;;;12.93;7.32;;;8.60;99.90;;;;;;6181750;23;20438;-92
2023/01/30 11:01:44;;;;;;;10.85;7.40;;;8.60;99.90;;;;;;6148171;23;20005;-93
2023/01/30 11:04:36;;;;;;;10.27;7.18;;;8.60;99.90;;;;;;6181199;23;20013;-93
2023/01/30 11:07:03;;;;;;;9.55;7.43;;;8.70;99.90;;;;;;6182702;23;20001;-93
2023/01/30 11:09:45;;;;;;;9.20;6.78;;;8.70;99.90;;;;;;6182588;23;20028;-92
2023/01/30 11:12:11;;;;;;;9.88;7.88;;;8.80;99.90;;;;;;6190267;23;20445;-92
2023/01/30 11:14:52;;;;;;;9.20;7.03;;;8.90;99.90;;;;;;6194776;23;20056;-92
2023/01/30 11:17:20;;;;;;;10.40;7.32;;;8.90;99.90;;;;;;6196057;23;20032;-93
2023/01/30 11:19:54;;;;;;;8.82;7.25;;;8.90;99.90;;;;;;6184287;23;20008;-94
2023/01/30 11:22:20;;;;;;;8.57;6.70;;;9.00;99.90;;;;;;6184723;23;20337;-94
2023/01/30 11:24:46;;;;;;;8.45;7.32;;;9.00;99.90;;;;;;6184991;23;20065;-94
2023/01/30 11:34:28;;;;;;;;;;;;;;;;;;;;;
2023/01/30 11:44:16;;;;;;;10.02;7.07;;;9.50;99.90;;;;;;5894803;24;20041;-93
2023/01/30 11:46:42;;;;;;;9.23;7.35;;;9.60;99.90;;;;;;5898171;24;20379;-92
2023/01/30 11:49:17;;;;;;;9.00;7.05;;;9.50;99.90;;;;;;5979939;23;20008;-92
2023/01/30 11:51:45;;;;;;;11.80;7.72;;;9.60;99.90;;;;;;6096500;23;20005;-92
2023/01/30 11:54:19;;;;;;;9.27;7.60;;;9.60;99.90;;;;;;6181308;23;20076;-91
2023/01/30 11:56:47;;;;;;;15.95;7.20;;;9.60;99.90;;;;;;6180960;23;19997;-90
2023/01/30 11:59:38;;;;;;;9.70;7.47;;;9.60;99.90;;;;;;6180506;23;20009;-93
2023/01/30 12:02:22;;;;;;;8.57;6.57;;;9.70;99.90;;;;;;6180703;23;20342;-90
2023/01/30 12:04:52;;;;;;;9.00;6.70;;;9.70;99.90;;;;;;6182200;23;20016;-91
2023/01/30 12:07:30;;;;;;;8.90;7.18;;;9.70;99.90;;;;;;6183499;23;20007;-92
2023/01/30 12:09:57;;;;;;;11.52;7.03;;;9.80;99.90;;;;;;6182766;23;20009;-91
2023/01/30 12:12:28;;;;;;;9.30;6.85;;;9.90;99.90;;;;;;6184617;23;20005;-91
2023/01/30 12:15:20;;;;;;;8.82;6.47;;;9.90;99.90;;;;;;6185324;23;20092;-92
2023/01/30 12:18:04;;;;;;;9.85;7.15;;;9.90;99.90;;;;;;6208384;23;19985;-89
2023/01/30 13:28:39;;;;;;;;;;;;;;;;;;;;;
2023/01/30 13:32:06;;;;;;;;;;;;;;;;;;;;;
2023/01/30 14:41:26;;;;;;;6.22;4.72;;;11.10;99.90;;;;;;6304776;22;20015;-87
2023/01/30 14:43:55;;;;;;;8.73;4.80;;;11.10;99.90;;;;;;6302949;22;20007;-91
2023/01/30 14:46:20;;;;;;;5.30;4.30;;;11.10;99.90;;;;;;6303502;22;20459;-91
2023/01/30 14:49:04;;;;;;;5.20;4.57;;;11.10;99.90;;;;;;6303097;22;19999;-88
2023/01/30 14:51:39;;;;;;;5.90;5.30;;;11.10;99.90;;;;;;6303178;22;20010;-92
2023/01/30 14:54:04;;;;;;;13.23;8.40;;;11.00;99.90;;;;;;6303241;22;20100;-88
2023/01/30 14:56:48;;;;;;;9.48;6.30;;;10.90;99.90;;;;;;6303167;22;20046;-87
2023/01/30 14:59:22;;;;;;;6.22;4.00;;;10.90;99.90;;;;;;6304150;22;19999;-91
2023/01/30 15:01:53;;;;;;;4.20;3.22;;;11.00;99.90;;;;;;6303295;22;20003;-89
2023/01/30 15:04:20;;;;;;;3.22;2.92;;;10.90;99.90;;;;;;6304509;22;20074;-88
2023/01/30 15:06:48;;;;;;;3.42;2.88;;;10.60;99.90;;;;;;6303660;22;20042;-88
2023/01/30 15:09:19;;;;;;;2.60;2.40;;;10.60;99.90;;;;;;6304148;22;20004;-86
2023/01/30 15:12:38;;;;;;;3.40;2.50;;;10.70;99.90;;;;;;6303694;22;20015;-92
2023/01/30 15:15:25;;;;;;;6.40;2.30;;;10.50;99.90;;;;;;6183971;23;20388;-87
2023/01/30 15:18:02;;;;;;;2.38;2.10;;;10.30;99.90;;;;;;6303249;22;20045;-87
2023/01/30 15:20:37;;;;;;;5.60;3.10;;;10.30;99.90;;;;;;6301548;22;20320;-87
2023/01/30 15:23:50;;;;;;;5.90;2.90;;;10.30;99.90;;;;;;6301078;22;20007;-87
2023/01/30 15:26:30;;;;;;;5.22;3.33;;;10.20;99.90;;;;;;6251967;22;20013;-86
2023/01/30 15:29:19;;;;;;;4.78;2.80;;;10.20;99.90;;;;;;6303614;22;20007;-89
2023/01/30 15:31:59;;;;;;;3.97;2.58;;;10.40;99.90;;;;;;6304726;22;19996;-87
2023/01/30 15:34:30;;;;;;;4.55;2.60;;;10.30;99.90;;;;;;6303625;22;19999;-92
2023/01/30 15:36:56;;;;;;;4.05;2.35;;;10.30;99.90;;;;;;6302800;22;20002;-87
2023/01/30 15:39:27;;;;;;;10.55;7.47;;;10.30;99.90;;;;;;6302674;22;20023;-91
2023/01/30 15:41:59;;;;;;;13.00;7.47;;;10.40;99.90;;;;;;6300485;22;20000;-88